CDT,Max TemperatureF,Mean TemperatureF,Min TemperatureF,Max Dew PointF,MeanDew PointF,Min DewpointF,Max Humidity, Mean Humidity, Min Humidity, Max Sea Level PressureIn, Mean Sea Level PressureIn, Min Sea Level PressureIn, Max VisibilityMiles, Mean VisibilityMiles, Min VisibilityMiles, Max Wind SpeedMPH, Mean Wind SpeedMPH, Max Gust SpeedMPH,PrecipitationIn, CloudCover, Events, WindDirDegrees
2010-10-1,80,66,51,57,52,50,94,79,37,30.19,30.13,30.06,10,10,10,7,3,,0.00,0,,4
2010-10-2,82,66,51,57,52,45,100,84,39,30.25,30.14,30.10,10,10,10,12,1,17,0.00,0,,351
2010-10-3,66,55,44,45,43,41,93,75,42,30.41,30.30,30.25,10,10,10,12,8,20,0.00,0,,33
2010-10-4,73,54,35,48,42,36,100,87,38,30.39,30.31,30.26,10,9,1,8,1,,0.00,0,,124
2010-10-5,77,56,35,50,43,36,100,88,36,30.39,30.33,30.28,10,8,0,9,1,,0.00,0,Fog,136
2010-10-6,80,60,41,55,45,41,100,89,34,30.36,30.30,30.20,10,8,1,7,0,,0.00,0,,163
2010-10-7,87,66,44,61,50,45,100,90,29,30.25,30.21,30.13,10,8,2,5,0,,0.00,0,,165
2010-10-8,86,66,46,57,50,46,100,87,29,30.17,30.12,30.04,10,7,0,9,0,,0.00,0,Fog,175
2010-10-9,87,66,44,55,48,45,100,93,33,30.11,30.06,30.00,10,8,0,8,0,17,0.00,0,Fog,197
2010-10-10,86,66,46,61,52,46,100,91,35,30.02,29.98,29.86,10,8,2,13,1,18,0.00,0,,175
2010-10-11,80,68,55,68,60,55,100,92,48,29.93,29.89,29.83,10,8,1,15,5,28,0.30,5,Rain-Thunderstorm,213
2010-10-12,78,64,50,59,54,50,100,89,44,30.14,29.99,29.93,10,9,2,14,1,25,0.00,0,,343
2010-10-13,75,63,50,57,54,45,94,80,38,30.32,30.21,30.14,10,10,10,12,7,20,0.00,0,,345
2010-10-14,75,58,41,52,43,39,100,85,34,30.37,30.30,30.17,10,10,4,6,2,,0.00,0,,336
2010-10-15,86,64,41,59,47,41,100,88,31,30.17,30.13,30.05,10,7,1,9,1,,0.00,0,,226
2010-10-16,84,64,44,59,50,45,100,88,29,30.17,30.11,30.07,10,7,1,12,1,,0.00,0,,166
2010-10-17,78,62,46,59,50,46,100,89,44,30.15,30.09,30.00,10,9,2,8,0,,0.00,0,,173
2010-10-18,84,67,50,66,54,50,100,91,45,29.99,29.95,29.87,10,6,0,9,1,,0.00,0,Fog,177
2010-10-19,77,68,59,64,62,57,100,93,61,30.04,29.94,29.87,10,10,10,8,2,,0.00,3,Rain,63
2010-10-20,82,66,51,61,55,50,100,91,32,30.11,30.05,30.01,10,6,0,6,0,,0.00,3,Fog,13
2010-10-21,82,63,44,66,51,45,100,90,42,30.08,30.03,29.92,10,5,0,9,1,,0.00,1,Fog,111
2010-10-22,80,70,59,68,60,54,100,90,61,30.05,29.97,29.87,10,10,5,17,4,25,0.26,6,Rain-Thunderstorm,110
2010-10-23,69,64,59,68,66,59,100,95,88,30.00,29.91,29.88,10,10,5,12,8,17,0.01,4,Rain-Thunderstorm,165
2010-10-24,82,68,55,66,61,55,100,95,42,29.89,29.83,29.69,10,9,1,12,7,,0.00,6,,174
2010-10-25,84,67,50,66,53,50,100,89,42,29.68,29.55,29.30,10,8,0,16,2,29,0.00,0,Fog,177
2010-10-26,73,60,46,52,45,37,93,65,27,29.78,29.64,29.44,10,10,10,17,9,28,0.00,0,,313
2010-10-27,75,58,42,54,46,37,100,87,25,30.28,29.87,29.76,10,10,10,14,1,17,0.00,2,,21
2010-10-28,68,52,37,41,36,28,93,72,28,30.52,30.40,30.29,10,10,10,12,3,,0.00,0,,338
2010-10-29,69,50,32,43,36,30,100,80,31,30.46,30.38,30.16,10,9,0,8,1,,0.00,0,Fog,145
2010-10-30,78,56,35,46,38,34,100,77,32,30.15,30.07,29.89,10,10,10,14,3,20,0.00,0,,142
2010-10-31,80,61,42,54,46,43,100,82,39,29.96,29.88,29.83,10,10,10,12,2,,0.00,0,,130